createdAt,value
2017-11-10T00:02:11.620Z,33.97
2017-11-10T00:04:39.501Z,33.13
2017-11-10T00:07:07.041Z,35.53
2017-11-10T00:09:34.576Z,32.83
2017-11-10T00:12:02.136Z,36.00
2017-11-10T00:14:29.668Z,34.50
2017-11-10T00:16:57.203Z,36.87
2017-11-10T00:19:24.780Z,34.50
2017-11-10T00:21:52.308Z,34.90
2017-11-10T00:24:19.849Z,34.55
2017-11-10T00:26:47.441Z,31.80
2017-11-10T00:29:16.404Z,36.80
2017-11-10T00:31:43.933Z,32.03
2017-11-10T00:34:11.510Z,31.67
2017-11-10T00:36:39.814Z,32.87
2017-11-10T00:39:07.355Z,32.70
2017-11-10T00:41:34.932Z,34.20
2017-11-10T00:44:02.464Z,34.55
2017-11-10T00:46:29.995Z,35.93
2017-11-10T00:48:57.584Z,34.47
2017-11-10T00:51:25.890Z,35.17
2017-11-10T00:53:53.432Z,33.25
2017-11-10T00:56:20.989Z,33.37
2017-11-10T00:58:48.520Z,31.70
2017-11-10T01:01:16.395Z,36.07
2017-11-10T01:03:43.956Z,38.43
2017-11-10T01:06:11.881Z,32.75
2017-11-10T01:08:39.419Z,43.28
2017-11-10T01:11:07.024Z,31.27
2017-11-10T01:13:36.503Z,36.80
2017-11-10T01:16:04.036Z,37.77
2017-11-10T01:18:31.593Z,40.77
2017-11-10T01:20:59.120Z,35.70
2017-11-10T01:23:26.653Z,32.70
2017-11-10T01:25:54.217Z,35.10
2017-11-10T01:28:21.748Z,35.87
2017-11-10T01:30:49.297Z,34.90
2017-11-10T01:33:16.884Z,36.80
2017-11-10T01:35:46.451Z,32.97
2017-11-10T01:38:24.502Z,30.30
2017-11-10T01:43:34.233Z,33.53
2017-11-10T01:46:01.764Z,32.80
2017-11-10T01:48:30.853Z,34.10
2017-11-10T01:50:59.208Z,28.50
2017-11-10T01:53:26.741Z,31.70
2017-11-10T01:55:54.276Z,33.37
2017-11-10T01:58:21.837Z,35.50
2017-11-10T02:00:49.374Z,28.53
2017-11-10T02:03:17.676Z,33.63
2017-11-10T02:05:45.232Z,31.37
2017-11-10T02:08:14.724Z,35.70
2017-11-10T02:10:42.268Z,32.53
2017-11-10T02:13:09.891Z,32.00
2017-11-10T02:15:37.421Z,35.20
2017-11-10T02:18:04.960Z,30.57
2017-11-10T02:20:33.279Z,32.83
2017-11-10T02:23:00.808Z,33.67
2017-11-10T02:25:29.102Z,33.30
2017-11-10T02:27:56.661Z,32.97
2017-11-10T02:30:24.198Z,30.80
2017-11-10T02:32:51.741Z,33.00
2017-11-10T02:35:19.333Z,34.07
2017-11-10T02:37:46.866Z,30.03
2017-11-10T02:40:16.296Z,30.08
2017-11-10T02:42:43.855Z,29.87
2017-11-10T02:45:13.168Z,30.48
2017-11-10T02:47:40.701Z,32.20
2017-11-10T02:50:08.260Z,31.67
2017-11-10T02:52:35.785Z,28.30
2017-11-10T02:55:03.320Z,30.40
2017-11-10T02:57:30.916Z,29.05
2017-11-10T02:59:58.452Z,32.60
2017-11-10T03:02:25.985Z,32.97
2017-11-10T03:04:53.548Z,30.67
2017-11-10T03:07:21.079Z,32.47
2017-11-10T03:09:48.856Z,27.83
2017-11-10T03:12:16.448Z,30.90
2017-11-10T03:14:43.984Z,30.57
2017-11-10T03:17:11.506Z,30.70
2017-11-10T03:19:39.080Z,29.93
2017-11-10T03:22:07.385Z,30.40
2017-11-10T03:24:34.925Z,32.13
2017-11-10T03:27:03.400Z,32.28
2017-11-10T03:29:30.932Z,29.10
2017-11-10T03:31:58.472Z,32.45
2017-11-10T03:34:26.033Z,30.17
2017-11-10T03:36:53.569Z,29.20
2017-11-10T03:39:21.108Z,31.20
2017-11-10T03:41:48.704Z,30.80
2017-11-10T03:44:16.415Z,34.00
2017-11-10T03:46:44.720Z,33.30
2017-11-10T03:49:12.280Z,31.17
2017-11-10T03:51:39.816Z,31.07
2017-11-10T03:54:07.357Z,30.37
2017-11-10T03:56:34.921Z,31.47
2017-11-10T03:59:02.460Z,32.03
2017-11-10T04:01:29.993Z,29.87
2017-11-10T04:03:57.576Z,31.17
2017-11-10T04:06:25.153Z,29.03
2017-11-10T04:08:52.702Z,29.13
2017-11-10T04:11:20.308Z,32.40
2017-11-10T04:13:48.621Z,32.43
2017-11-10T04:16:16.412Z,31.63
2017-11-10T04:18:43.959Z,33.93
2017-11-10T04:21:11.497Z,29.30
2017-11-10T04:23:39.033Z,30.37
2017-11-10T04:26:06.780Z,31.27
2017-11-10T04:28:34.325Z,33.23
2017-11-10T04:31:01.852Z,31.90
2017-11-10T04:33:29.427Z,30.95
2017-11-10T04:35:56.961Z,30.33
2017-11-10T04:38:24.505Z,30.03
2017-11-10T04:40:52.064Z,30.17
2017-11-10T04:43:19.609Z,29.90
2017-11-10T04:45:47.145Z,30.10
2017-11-10T04:48:16.496Z,33.55
2017-11-10T04:50:44.032Z,30.30
2017-11-10T04:53:11.576Z,32.00
2017-11-10T04:55:39.179Z,29.30
2017-11-10T04:58:06.714Z,29.33
2017-11-10T05:00:34.265Z,27.87
2017-11-10T05:03:01.822Z,27.23
2017-11-10T05:05:30.124Z,27.60
2017-11-10T05:07:57.659Z,26.30
2017-11-10T05:10:26.008Z,26.23
2017-11-10T05:12:53.704Z,28.60
2017-11-10T05:15:22.016Z,30.60
2017-11-10T05:17:49.600Z,26.10
2017-11-10T05:20:17.184Z,28.77
2017-11-10T05:22:44.729Z,28.93
2017-11-10T05:25:12.291Z,26.47
2017-11-10T05:27:40.166Z,29.97
2017-11-10T05:30:07.717Z,42.60
2017-11-10T05:32:35.309Z,28.10
2017-11-10T05:35:03.617Z,26.63
2017-11-10T05:37:31.161Z,29.70
2017-11-10T05:39:59.503Z,27.60
2017-11-10T05:42:27.045Z,26.33
2017-11-10T05:44:54.584Z,24.60
2017-11-10T05:47:22.152Z,26.33
2017-11-10T05:49:49.689Z,27.80
2017-11-10T05:52:17.228Z,27.07
2017-11-10T05:54:44.812Z,28.20
2017-11-10T05:57:12.349Z,31.53
2017-11-10T05:59:40.651Z,25.90
2017-11-10T06:02:08.216Z,26.33
2017-11-10T06:04:35.761Z,31.03
2017-11-10T06:07:03.305Z,37.30
2017-11-10T06:09:30.865Z,33.20
2017-11-10T06:11:58.412Z,29.90
2017-11-10T06:14:26.288Z,26.20
2017-11-10T06:16:53.872Z,30.17
2017-11-10T06:19:21.405Z,27.90
2017-11-10T06:21:48.947Z,22.07
2017-11-10T06:24:16.521Z,24.85
2017-11-10T06:26:44.819Z,26.77
2017-11-10T06:29:12.356Z,53.30
2017-11-10T06:31:40.681Z,25.80
2017-11-10T06:34:09.239Z,25.83
2017-11-10T06:36:36.837Z,30.60
2017-11-10T06:39:04.424Z,27.70
2017-11-10T06:41:31.948Z,28.30
2017-11-10T06:43:59.484Z,28.45
2017-11-10T06:46:27.040Z,29.27
2017-11-10T06:48:54.572Z,28.50
2017-11-10T06:51:22.112Z,37.30
2017-11-10T06:53:49.668Z,32.40
2017-11-10T06:56:17.201Z,28.73
2017-11-10T06:58:44.741Z,36.33
2017-11-10T07:01:12.351Z,26.60
2017-11-10T07:03:39.893Z,25.70
2017-11-10T07:06:07.419Z,25.65
2017-11-10T07:08:34.988Z,24.20
2017-11-10T07:11:02.524Z,28.38
2017-11-10T07:13:30.824Z,22.60
2017-11-10T07:15:58.625Z,28.23
2017-11-10T07:18:26.172Z,29.63
2017-11-10T07:20:53.729Z,30.43
2017-11-10T07:23:21.352Z,28.33
2017-11-10T07:25:49.653Z,33.73
2017-11-10T07:28:17.945Z,30.27
2017-11-10T07:30:45.501Z,31.43
2017-11-10T07:33:24.832Z,35.90
2017-11-10T07:38:42.281Z,28.70
2017-11-10T07:41:09.817Z,31.50
2017-11-10T07:43:37.356Z,28.75
2017-11-10T07:46:04.919Z,36.77
2017-11-10T07:48:32.669Z,35.90
2017-11-10T07:51:00.225Z,32.20
2017-11-10T07:53:27.788Z,26.13
2017-11-10T07:55:55.320Z,34.43
2017-11-10T07:58:22.865Z,30.53
2017-11-10T08:00:50.644Z,28.43
2017-11-10T08:03:18.180Z,29.93
2017-11-10T08:05:45.721Z,24.77
2017-11-10T08:08:25.606Z,28.17
2017-11-10T08:20:34.492Z,26.83
2017-11-10T08:23:02.029Z,27.30
2017-11-10T08:25:29.563Z,36.50
2017-11-10T08:27:57.142Z,28.27
2017-11-10T08:30:24.681Z,25.40
2017-11-10T08:32:52.223Z,22.67
2017-11-10T08:35:20.558Z,27.40
2017-11-10T08:37:48.105Z,27.23
2017-11-10T08:40:17.276Z,27.73
2017-11-10T08:42:44.864Z,30.40
2017-11-10T08:45:12.408Z,30.58
2017-11-10T08:47:39.941Z,25.20
2017-11-10T08:50:08.288Z,31.27
2017-11-10T08:52:35.829Z,27.47
2017-11-10T08:55:03.378Z,25.65
2017-11-10T08:57:30.938Z,27.30
2017-11-10T08:59:58.472Z,28.90
2017-11-10T09:02:26.018Z,27.13
2017-11-10T09:04:54.365Z,33.40
2017-11-10T09:07:21.904Z,28.93
2017-11-10T09:09:49.441Z,26.53
2017-11-10T09:12:17.010Z,30.27
2017-11-10T09:14:45.311Z,29.27
2017-11-10T09:17:25.053Z,33.92
2017-11-10T09:22:40.239Z,27.20
2017-11-10T09:25:07.759Z,30.50
2017-11-10T09:27:35.302Z,31.23
2017-11-10T09:30:09.300Z,33.10
2017-11-10T09:32:42.533Z,31.83
2017-11-10T09:35:26.857Z,29.00
2017-11-10T09:37:57.899Z,30.67
2017-11-10T09:40:43.175Z,27.62
2017-11-10T09:46:18.047Z,29.20
2017-11-10T09:49:04.384Z,32.30
2017-11-10T09:51:37.659Z,28.73
2017-11-10T09:54:13.683Z,29.87
2017-11-10T09:59:52.400Z,27.50
2017-11-10T10:02:29.873Z,30.52
2017-11-10T10:05:01.901Z,33.47
2017-11-10T10:07:34.264Z,34.63
2017-11-10T10:10:07.478Z,32.17
2017-11-10T10:12:47.615Z,33.97
2017-11-10T10:15:19.263Z,29.42
2017-11-10T10:18:01.526Z,29.17
2017-11-10T10:20:33.689Z,32.93
2017-11-10T10:23:01.801Z,28.20
2017-11-10T10:25:30.125Z,31.70
2017-11-10T10:27:57.675Z,31.23
2017-11-10T10:30:26.180Z,29.90
2017-11-10T10:32:53.781Z,38.50
2017-11-10T10:35:22.082Z,38.93
2017-11-10T10:37:49.625Z,31.93
2017-11-10T10:40:17.952Z,32.90
2017-11-10T10:42:45.481Z,31.40
2017-11-10T10:45:14.630Z,32.40
2017-11-10T10:47:42.196Z,31.83
2017-11-10T10:50:09.737Z,29.60
2017-11-10T10:52:37.356Z,32.80
2017-11-10T10:55:05.003Z,30.13
2017-11-10T10:57:32.550Z,31.50
2017-11-10T11:00:00.856Z,28.70
2017-11-10T11:02:28.441Z,30.77
2017-11-10T11:04:55.980Z,31.17
2017-11-10T11:07:23.525Z,33.17
2017-11-10T11:09:51.088Z,29.03
2017-11-10T11:12:18.645Z,30.02
2017-11-10T11:14:46.182Z,36.30
2017-11-10T11:17:25.618Z,28.58
2017-11-10T11:20:21.796Z,33.00
2017-11-10T11:22:49.380Z,40.50
2017-11-10T11:25:17.507Z,30.90
2017-11-10T11:27:45.048Z,30.23
2017-11-10T11:30:14.396Z,44.67
2017-11-10T11:32:41.928Z,36.23
2017-11-10T11:35:09.462Z,29.63
2017-11-10T11:37:37.067Z,29.80
2017-11-10T11:40:04.608Z,32.17
2017-11-10T11:42:32.144Z,29.70
2017-11-10T11:44:59.733Z,29.80
2017-11-10T11:47:27.321Z,28.63
2017-11-10T11:49:55.691Z,30.30
2017-11-10T11:52:23.255Z,34.60
2017-11-10T11:54:50.784Z,33.27
2017-11-10T11:57:19.091Z,31.33
2017-11-10T11:59:46.698Z,34.13
2017-11-10T12:02:16.567Z,25.52
2017-11-10T12:04:44.102Z,31.23
2017-11-10T12:07:12.090Z,29.70
2017-11-10T12:09:39.621Z,26.90
2017-11-10T12:12:08.275Z,26.70
2017-11-10T12:14:35.829Z,26.57
2017-11-10T12:17:03.388Z,28.77
2017-11-10T12:19:31.228Z,25.17
2017-11-10T12:21:59.221Z,28.13
2017-11-10T12:24:26.750Z,28.97
2017-11-10T12:26:54.698Z,29.60
2017-11-10T12:29:22.321Z,23.73
2017-11-10T12:31:49.937Z,27.03
2017-11-10T12:34:17.485Z,29.12
2017-11-10T12:36:45.432Z,27.27
2017-11-10T12:39:15.395Z,29.67
2017-11-10T12:41:42.953Z,27.10
2017-11-10T12:44:10.686Z,29.67
2017-11-10T12:46:38.990Z,28.33
2017-11-10T12:49:06.540Z,34.77
2017-11-10T12:51:34.116Z,27.47
2017-11-10T12:54:01.657Z,33.63
2017-11-10T12:56:29.197Z,28.97
2017-11-10T12:58:57.564Z,32.33
2017-11-10T13:01:25.105Z,33.05
2017-11-10T13:03:52.636Z,29.50
2017-11-10T13:06:20.253Z,32.75
2017-11-10T13:08:48.552Z,32.23
2017-11-10T13:11:16.409Z,28.20
2017-11-10T13:13:44.869Z,27.10
2017-11-10T13:16:12.460Z,34.28
2017-11-10T13:18:39.996Z,30.80
2017-11-10T13:21:08.325Z,29.00
2017-11-10T13:23:35.861Z,28.13
2017-11-10T13:26:03.418Z,30.08
2017-11-10T13:28:31.262Z,34.50
2017-11-10T13:30:59.380Z,35.60
2017-11-10T13:33:26.919Z,30.60
2017-11-10T13:35:54.516Z,31.10
2017-11-10T13:38:22.049Z,33.27
2017-11-10T13:40:49.584Z,32.50
2017-11-10T13:43:17.912Z,32.00
2017-11-10T13:45:45.599Z,33.90
2017-11-10T13:48:14.710Z,32.38
2017-11-10T13:50:43.060Z,32.67
2017-11-10T13:53:10.592Z,35.87
2017-11-10T13:55:38.125Z,31.93
2017-11-10T13:58:05.677Z,34.60
2017-11-10T14:00:33.982Z,31.65
2017-11-10T14:03:01.537Z,31.07
2017-11-10T14:05:29.103Z,33.10
2017-11-10T14:07:56.637Z,31.43
2017-11-10T14:10:24.188Z,34.53
2017-11-10T14:12:51.782Z,31.17
2017-11-10T14:15:19.328Z,34.00
2017-11-10T14:17:46.884Z,34.60
2017-11-10T14:20:16.420Z,29.15
2017-11-10T14:22:43.984Z,34.43
2017-11-10T14:25:11.538Z,34.40
2017-11-10T14:27:39.108Z,25.93
2017-11-10T14:30:07.037Z,29.20
2017-11-10T14:32:35.341Z,30.70
2017-11-10T14:35:02.927Z,29.10
2017-11-10T14:37:30.464Z,28.46
2017-11-10T14:39:58.001Z,28.80
2017-11-10T14:42:25.664Z,28.60
2017-11-10T14:44:53.208Z,29.73
2017-11-10T14:47:20.748Z,27.10
2017-11-10T14:49:48.310Z,29.10
2017-11-10T14:52:16.405Z,33.20
2017-11-10T14:54:43.937Z,36.70
2017-11-10T14:57:11.536Z,28.83
2017-11-10T14:59:39.081Z,26.23
2017-11-10T15:02:06.612Z,25.43
2017-11-10T15:04:34.160Z,27.07
2017-11-10T15:07:01.697Z,27.37
2017-11-10T15:09:30.106Z,25.40
2017-11-10T15:11:57.664Z,29.87
2017-11-10T15:14:25.197Z,27.43
2017-11-10T15:16:52.731Z,28.90
2017-11-10T15:19:20.312Z,36.97
2017-11-10T15:21:47.845Z,37.80
2017-11-10T15:24:16.496Z,30.12
2017-11-10T15:26:44.049Z,32.00
2017-11-10T15:29:11.581Z,30.57
2017-11-10T15:31:39.112Z,31.53
2017-11-10T15:34:06.669Z,30.23
2017-11-10T15:36:34.237Z,27.70
2017-11-10T15:39:01.772Z,29.37
2017-11-10T15:41:30.138Z,27.77
2017-11-10T15:43:57.669Z,32.03
2017-11-10T15:46:25.217Z,26.23
2017-11-10T15:48:52.781Z,26.20
2017-11-10T15:51:20.321Z,31.80
2017-11-10T15:53:47.860Z,30.37
2017-11-10T15:56:15.621Z,28.12
2017-11-10T15:58:43.920Z,28.90
2017-11-10T16:01:11.584Z,27.50
2017-11-10T16:03:39.238Z,35.43
2017-11-10T16:06:06.809Z,37.50
2017-11-10T16:08:35.143Z,28.33
2017-11-10T16:11:02.725Z,27.30
2017-11-10T16:13:30.370Z,28.33
2017-11-10T16:15:58.722Z,28.23
2017-11-10T16:18:27.105Z,28.43
2017-11-10T16:20:54.660Z,30.73
2017-11-10T16:23:22.212Z,25.00
2017-11-10T16:25:50.096Z,27.57
2017-11-10T16:28:17.643Z,29.43
2017-11-10T16:30:45.182Z,25.63
2017-11-10T16:33:14.900Z,28.57
2017-11-10T16:35:42.444Z,27.52
2017-11-10T16:38:09.993Z,24.50
2017-11-10T16:40:37.560Z,24.77
2017-11-10T16:43:05.098Z,22.90
2017-11-10T16:45:32.724Z,29.08
2017-11-10T16:48:00.353Z,26.90
2017-11-10T16:50:27.892Z,25.60
2017-11-10T16:52:55.436Z,24.67
2017-11-10T16:55:22.990Z,26.60
2017-11-10T16:57:51.292Z,25.03
2017-11-10T17:00:18.834Z,23.97
2017-11-10T17:02:47.176Z,21.80
2017-11-10T17:05:16.444Z,24.35
2017-11-10T17:07:44.002Z,24.80
2017-11-10T17:10:11.877Z,22.90
2017-11-10T17:12:39.474Z,27.62
2017-11-10T17:15:07.020Z,19.77
2017-11-10T17:17:34.601Z,19.47
2017-11-10T17:20:02.158Z,19.03
2017-11-10T17:22:29.721Z,20.50
2017-11-10T17:24:57.306Z,19.47
2017-11-10T17:27:24.853Z,17.27
2017-11-10T17:29:53.189Z,17.30
2017-11-10T17:32:20.802Z,14.07
2017-11-10T17:34:48.697Z,15.27
2017-11-10T17:37:16.421Z,15.68
2017-11-10T17:39:44.769Z,20.10
2017-11-10T17:42:12.312Z,18.03
2017-11-10T17:44:39.848Z,20.13
2017-11-10T17:47:07.423Z,16.85
2017-11-10T17:49:34.990Z,14.53
2017-11-10T17:52:02.943Z,13.00
2017-11-10T18:21:41.493Z,15.47
2017-11-10T18:24:09.037Z,14.13
2017-11-10T18:26:36.585Z,12.73
2017-11-10T18:29:04.153Z,13.93
2017-11-10T18:31:31.689Z,12.70
2017-11-10T18:33:59.225Z,13.80
2017-11-10T18:36:28.112Z,13.87
2017-11-10T18:38:56.411Z,12.30
2017-11-10T18:41:23.944Z,12.27
2017-11-10T18:43:52.262Z,12.50
2017-11-10T18:46:20.560Z,12.25
2017-11-10T18:48:53.689Z,12.33
2017-11-10T18:51:21.357Z,10.30
2017-11-10T18:53:48.988Z,11.50
2017-11-10T18:56:16.941Z,12.88
2017-11-10T18:58:44.472Z,11.87
2017-11-10T19:01:12.004Z,11.20
2017-11-10T19:03:39.564Z,12.32
2017-11-10T19:06:07.248Z,13.27
2017-11-10T19:08:34.844Z,13.97
2017-11-10T19:11:02.695Z,17.77
2017-11-10T19:13:30.528Z,15.23
2017-11-10T19:15:58.104Z,12.03
2017-11-10T19:18:25.725Z,12.77
2017-11-10T19:20:53.282Z,18.47
2017-11-10T19:23:20.914Z,16.33
2017-11-10T19:25:48.635Z,11.43
2017-11-10T19:28:17.235Z,14.27
2017-11-10T19:30:44.780Z,10.60
2017-11-10T19:33:14.075Z,10.07
2017-11-10T19:35:42.420Z,10.13
2017-11-10T19:38:10.752Z,10.00
2017-11-10T19:40:38.329Z,10.77
2017-11-10T19:43:05.858Z,10.07
2017-11-10T19:45:33.399Z,12.30
2017-11-10T19:48:01.036Z,12.20
2017-11-10T19:50:28.556Z,10.53
2017-11-10T19:52:56.084Z,8.60
2017-11-10T19:55:23.641Z,11.03
2017-11-10T19:57:51.946Z,7.33
2017-11-10T20:42:36.031Z,8.80
2017-11-10T20:45:03.556Z,9.90
2017-11-10T20:47:31.096Z,13.63
2017-11-10T20:49:58.666Z,8.90
2017-11-10T20:52:26.191Z,9.23
2017-11-10T20:54:53.714Z,8.20
2017-11-10T20:57:21.318Z,8.63
2017-11-10T20:59:48.848Z,8.40
2017-11-10T21:02:16.463Z,8.60
2017-11-10T21:04:44.038Z,7.70
2017-11-10T21:07:11.574Z,8.97
2017-11-10T21:09:39.099Z,8.90
2017-11-10T21:12:06.651Z,10.43
2017-11-10T21:14:34.184Z,11.10
2017-11-10T21:17:01.709Z,8.80
2017-11-10T21:19:29.274Z,11.10
2017-11-10T21:21:56.820Z,8.67
2017-11-10T21:24:24.357Z,11.30
2017-11-10T21:26:52.750Z,9.37
2017-11-10T21:29:20.321Z,8.05
2017-11-10T21:31:47.852Z,8.73
2017-11-10T21:34:16.401Z,9.35
2017-11-10T21:36:43.935Z,14.10
2017-11-10T21:39:11.520Z,8.63
2017-11-10T21:41:39.081Z,8.03
2017-11-10T21:44:06.832Z,8.00
2017-11-10T21:46:34.374Z,10.23
2017-11-10T21:49:02.004Z,9.30
2017-11-10T21:51:30.334Z,7.83
2017-11-10T21:53:57.880Z,8.57
2017-11-10T21:56:25.457Z,8.70
2017-11-10T21:58:52.997Z,6.93
2017-11-10T22:01:20.532Z,8.67
2017-11-10T22:03:48.089Z,7.67
2017-11-10T22:06:16.418Z,6.73
2017-11-10T22:08:43.965Z,7.97
2017-11-10T22:11:12.156Z,7.70
2017-11-10T22:13:39.690Z,8.23
2017-11-10T22:16:07.230Z,8.00
2017-11-10T22:18:34.791Z,7.73
2017-11-10T22:21:02.315Z,8.30
2017-11-10T22:23:30.993Z,8.33
2017-11-10T22:25:58.568Z,8.38
2017-11-10T22:28:26.099Z,7.60
2017-11-10T22:30:54.147Z,6.67
2017-11-10T22:33:21.900Z,7.50
2017-11-10T22:35:49.526Z,7.47
2017-11-10T22:38:17.836Z,7.27
2017-11-10T22:40:45.393Z,7.47
2017-11-10T22:43:15.317Z,7.62
2017-11-10T22:45:43.077Z,7.63
2017-11-10T22:48:10.629Z,8.10
2017-11-10T22:50:38.168Z,8.47
2017-11-10T22:53:06.466Z,7.60
2017-11-10T22:55:34.044Z,7.47
2017-11-10T22:58:01.573Z,7.27
2017-11-10T23:00:29.868Z,7.97
2017-11-10T23:02:57.425Z,7.30
2017-11-10T23:05:24.959Z,6.83
2017-11-10T23:07:52.496Z,9.00
2017-11-10T23:10:20.048Z,7.85
2017-11-10T23:12:47.584Z,8.57
2017-11-10T23:15:16.424Z,9.27
2017-11-10T23:17:44.776Z,9.03
2017-11-10T23:20:12.311Z,9.03
2017-11-10T23:22:39.853Z,10.33
2017-11-10T23:25:07.444Z,8.70
2017-11-10T23:27:34.976Z,9.43
2017-11-10T23:30:02.504Z,10.50
2017-11-10T23:32:30.861Z,10.00
2017-11-10T23:34:58.404Z,10.20
2017-11-10T23:37:25.944Z,11.55
2017-11-10T23:39:53.537Z,11.30
2017-11-10T23:42:21.073Z,9.83
2017-11-10T23:44:48.621Z,11.87
2017-11-10T23:47:16.704Z,13.35
2017-11-10T23:49:44.244Z,11.50
2017-11-10T23:52:11.780Z,12.47
2017-11-10T23:54:40.109Z,13.73
2017-11-10T23:57:07.645Z,11.00
2017-11-10T23:59:35.179Z,11.27
